Saint-Bruno-De-Guigues, Canada
Current Conditions -  °F | °C
As of 9:00 AM on Friday 28 Nov 2014 (Local Time) from CYXR Reporting Station
Clear Clear  
Wind Chill: -19°   Ceiling: Unl
Heat Index: -8°   Visibility: 9mi
Dew Point: -11°   Wind: 5mph
Humidity: 84%   Direction: 290°WNW
Pressure: 30.21"   Gusts: NA
Location:  47.47°N, 79.43°W
Report Text: CYXR 281400Z AUTO 29004KT 9SM CLR M22/M24 A3021 RMK ICG SLP256
Loading
Personal Weather Stations






























Interactive Weather Map New forecast layout! Learn more

10-Day Weather Forecast

Advertisements
Track Severe Weather on mobile